Time;durP1;ratioP1;P1;durP2;ratioP2;P2;SDS_P1;SDS_P2;PMS_P1;PMS_P2;Temp;Humidity;BMP_temperature;BMP_pressure;BME280_temperature;BME280_humidity;BME280_pressure;Samples;Min_cycle;Max_cycle;Signal;HPM_P1;HPM_P2
2022/01/18 00:00:09;;;;;;;;;;;;;;;14.29;61.34;103462.53;1052916;28;732;-62
2022/01/18 00:01:00;;;;;;;;;;;;;;;14.29;61.77;103451.81;1050399;28;1729;-62
2022/01/18 00:01:50;;;;;;;;;;;;;;;14.29;61.54;103458.97;1050414;28;1354;-62
2022/01/18 00:02:40;;;;;;;;;;;;;;;14.28;61.94;103460.78;1050502;28;788;-62
2022/01/18 00:03:31;;;;;;;;;;;;;;;14.28;61.58;103459.91;1051146;28;672;-63
2022/01/18 00:04:21;;;;;;;;;;;;;;;14.27;60.95;103453.69;1051000;28;610;-62
2022/01/18 00:05:14;;;;;;;;;;;;;;;14.28;61.33;103451.88;1051116;28;807;-61
2022/01/18 00:06:05;;;;;;;;;;;;;;;14.29;61.76;103461.66;1050412;28;1991;-61
2022/01/18 00:06:55;;;;;;;;;;;;;;;14.30;61.21;103458.06;1049235;28;790;-61
2022/01/18 00:07:47;;;;;;;;;;;;;;;14.29;61.52;103454.50;1051065;28;811;-62
2022/01/18 00:08:37;;;;;;;;;;;;;;;14.30;62.14;103463.41;1050344;28;775;-62
2022/01/18 00:09:28;;;;;;;;;;;;;;;14.30;61.89;103466.09;1049869;28;669;-62
2022/01/18 00:10:18;;;;;;;;;;;;;;;14.28;62.14;103466.16;1050472;28;634;-62
2022/01/18 00:11:09;;;;;;;;;;;;;;;14.29;62.33;103475.94;1050389;28;897;-62
2022/01/18 00:12:13;;;;;;;;;;;;;;;14.28;62.08;103476.00;1050472;28;763;-62
2022/01/18 00:14:02;;;;;;;;;;;;;;;14.29;62.07;103475.06;1049829;28;704;-62
2022/01/18 00:15:15;;;;;;;;;;;;;;;14.27;61.95;103474.25;1050411;28;727;-62
2022/01/18 00:17:05;;;;;;;;;;;;;;;14.28;61.65;103471.53;1049749;28;993;-62
2022/01/18 00:18:53;;;;;;;;;;;;;;;14.27;62.52;103479.63;1054604;28;752;-62
2022/01/18 00:19:52;;;;;;;;;;;;;;;14.27;62.16;103474.25;1053098;28;1917;-62
2022/01/18 00:21:18;;;;;;;;;;;;;;;14.26;62.41;103486.78;1053344;28;786;-62
2022/01/18 00:22:12;;;;;;;;;;;;;;;14.25;62.48;103485.91;1053230;28;791;-61
2022/01/18 00:23:02;;;;;;;;;;;;;;;14.27;62.06;103490.34;1053341;28;819;-62
2022/01/18 00:23:56;;;;;;;;;;;;;;;14.27;62.59;103479.63;1054466;28;938;-62
2022/01/18 00:24:46;;;;;;;;;;;;;;;14.25;62.48;103475.19;1053568;28;821;-62
2022/01/18 00:25:40;;;;;;;;;;;;;;;14.27;62.69;103482.31;1053864;28;848;-62
2022/01/18 00:26:33;;;;;;;;;;;;;;;14.24;62.54;103486.84;1053265;28;864;-62
2022/01/18 00:27:23;;;;;;;;;;;;;;;14.22;62.60;103486.03;1053396;28;758;-62
2022/01/18 00:28:13;;;;;;;;;;;;;;;14.24;62.21;103480.59;1054603;28;900;-62
2022/01/18 00:29:11;;;;;;;;;;;;;;;14.24;62.21;103488.66;1054018;28;744;-62
2022/01/18 00:32:59;;;;;;;;;;;;;;;14.25;62.44;103485.03;1054574;28;645;-61
2022/01/18 00:34:10;;;;;;;;;;;;;;;14.24;62.62;103486.84;1053452;28;860;-62
2022/01/18 00:35:00;;;;;;;;;;;;;;;14.24;62.54;103480.59;1053441;28;712;-63
2022/01/18 00:35:58;;;;;;;;;;;;;;;14.23;62.30;103477.06;1054519;28;740;-62
2022/01/18 00:37:23;;;;;;;;;;;;;;;14.22;62.28;103475.31;1053288;28;692;-62
2022/01/18 00:38:17;;;;;;;;;;;;;;;14.23;62.10;103476.19;1049016;28;761;-61
2022/01/18 00:39:07;;;;;;;;;;;;;;;14.22;62.25;103486.03;1049892;28;761;-62
2022/01/18 00:39:57;;;;;;;;;;;;;;;14.22;62.50;103483.34;1050355;28;793;-61
2022/01/18 00:40:48;;;;;;;;;;;;;;;14.22;62.48;103483.34;1050311;28;792;-61
2022/01/18 00:41:38;;;;;;;;;;;;;;;14.22;62.27;103480.66;1050321;28;792;-62
2022/01/18 00:42:29;;;;;;;;;;;;;;;14.21;62.24;103486.97;1050154;28;750;-62
2022/01/18 00:43:19;;;;;;;;;;;;;;;14.22;62.34;103490.53;1050328;28;645;-63
2022/01/18 00:44:10;;;;;;;;;;;;;;;14.22;62.16;103488.72;1050306;28;720;-63
2022/01/18 00:45:00;;;;;;;;;;;;;;;14.21;62.18;103489.66;1050315;28;716;-63
2022/01/18 00:45:51;;;;;;;;;;;;;;;14.21;62.65;103489.66;1049675;28;2018;-63
2022/01/18 00:46:41;;;;;;;;;;;;;;;14.21;62.46;103486.97;1053831;28;872;-63
2022/01/18 00:47:32;;;;;;;;;;;;;;;14.22;62.18;103493.19;1053453;28;757;-63
2022/01/18 00:48:22;;;;;;;;;;;;;;;14.21;62.77;103491.44;1053255;28;621;-62
2022/01/18 00:49:13;;;;;;;;;;;;;;;14.21;62.21;103489.66;1053338;28;669;-62
2022/01/18 00:50:04;;;;;;;;;;;;;;;14.19;62.83;103485.25;1053161;28;1353;-62
2022/01/18 00:50:56;;;;;;;;;;;;;;;14.20;62.44;103490.56;1053815;28;887;-62
2022/01/18 00:51:53;;;;;;;;;;;;;;;14.19;62.51;103483.47;1052811;28;1886;-62
2022/01/18 00:52:49;;;;;;;;;;;;;;;14.19;62.71;103483.47;1050712;28;764;-62
2022/01/18 00:53:40;;;;;;;;;;;;;;;14.20;62.73;103487.00;1050881;28;708;-62
2022/01/18 00:54:37;;;;;;;;;;;;;;;14.20;62.70;103479.84;1050335;28;696;-62
2022/01/18 00:55:33;;;;;;;;;;;;;;;14.20;62.28;103478.97;1050851;28;692;-62
2022/01/18 00:56:31;;;;;;;;;;;;;;;14.19;62.29;103483.47;1050231;28;728;-62
2022/01/18 00:57:22;;;;;;;;;;;;;;;14.18;62.09;103473.66;1050792;28;1899;-63
2022/01/18 00:58:12;;;;;;;;;;;;;;;14.19;62.63;103483.47;1050282;28;649;-63
2022/01/18 00:59:03;;;;;;;;;;;;;;;14.18;62.09;103486.19;1050161;28;807;-63
2022/01/18 00:59:53;;;;;;;;;;;;;;;14.19;62.56;103478.09;1050869;28;688;-62
2022/01/18 01:00:44;;;;;;;;;;;;;;;14.19;62.48;103486.13;1050781;28;809;-62
2022/01/18 01:01:34;;;;;;;;;;;;;;;14.19;62.59;103485.25;1050186;28;815;-61
2022/01/18 01:02:24;;;;;;;;;;;;;;;14.18;62.42;103486.19;1050696;28;1300;-62
2022/01/18 01:03:15;;;;;;;;;;;;;;;14.17;62.28;103479.09;1050188;28;837;-61
2022/01/18 01:04:05;;;;;;;;;;;;;;;14.17;62.65;103477.28;1050358;28;791;-61
2022/01/18 01:04:56;;;;;;;;;;;;;;;14.17;62.47;103485.31;1050231;28;788;-62
2022/01/18 01:05:46;;;;;;;;;;;;;;;14.17;62.08;103477.28;1050197;28;771;-62
2022/01/18 01:06:37;;;;;;;;;;;;;;;14.18;62.75;103479.03;1050897;28;821;-62
2022/01/18 01:07:28;;;;;;;;;;;;;;;14.16;62.59;103477.34;1051213;28;906;-62
2022/01/18 01:08:18;;;;;;;;;;;;;;;14.17;62.36;103487.13;1050230;28;687;-62
2022/01/18 01:09:09;;;;;;;;;;;;;;;14.17;62.65;103484.44;1050194;28;1810;-62
2022/01/18 01:09:59;;;;;;;;;;;;;;;14.15;62.94;103481.81;1050849;28;898;-62
2022/01/18 01:10:49;;;;;;;;;;;;;;;14.14;62.83;103484.59;1050203;28;817;-62
2022/01/18 01:11:40;;;;;;;;;;;;;;;14.14;62.46;103488.16;1050130;28;884;-62
2022/01/18 01:12:31;;;;;;;;;;;;;;;14.14;63.04;103485.47;1050846;28;763;-62
2022/01/18 01:13:21;;;;;;;;;;;;;;;14.15;62.39;103489.03;1050245;28;760;-62
2022/01/18 01:14:17;;;;;;;;;;;;;;;14.16;62.17;103488.06;1050210;28;673;-63
2022/01/18 01:15:11;;;;;;;;;;;;;;;14.15;62.11;103486.34;1050638;28;777;-62
2022/01/18 01:18:13;;;;;;;;;;;;;;;14.15;62.06;103495.22;1050123;28;736;-62
2022/01/18 01:19:16;;;;;;;;;;;;;;;14.15;62.70;103497.06;1050174;28;708;-62
2022/01/18 01:41:39;;;;;;;;;;;;;;;14.07;62.99;103488.41;1050678;28;1913;-63
2022/01/18 01:41:47;;;;;;;;;;;;;;;14.07;62.10;103481.25;1051098;28;785;-63
2022/01/18 01:42:26;;;;;;;;;;;;;;;14.07;62.56;103478.56;1050396;28;1260;-63
2022/01/18 01:43:30;;;;;;;;;;;;;;;14.07;62.27;103477.69;1050039;28;941;-63
2022/01/18 01:44:25;;;;;;;;;;;;;;;14.07;62.64;103483.94;1051248;28;696;-63
2022/01/18 01:45:16;;;;;;;;;;;;;;;14.06;62.42;103476.81;1051060;28;881;-63
2022/01/18 01:46:07;;;;;;;;;;;;;;;14.07;62.60;103483.94;1052436;28;1890;-62
2022/01/18 01:46:57;;;;;;;;;;;;;;;14.05;62.29;103483.13;1054120;28;1435;-63
2022/01/18 01:47:51;;;;;;;;;;;;;;;14.06;62.18;103475.94;1054365;28;760;-62
2022/01/18 01:48:45;;;;;;;;;;;;;;;14.06;61.89;103475.94;1050643;28;809;-62
2022/01/18 01:49:35;;;;;;;;;;;;;;;14.06;62.11;103478.63;1049972;28;740;-62
2022/01/18 01:50:28;;;;;;;;;;;;;;;14.05;61.68;103480.44;1050019;28;836;-62
2022/01/18 01:51:20;;;;;;;;;;;;;;;14.05;62.66;103475.06;1050386;28;755;-62
2022/01/18 01:52:11;;;;;;;;;;;;;;;14.07;61.75;103475.00;1050673;28;637;-62
2022/01/18 01:53:01;;;;;;;;;;;;;;;14.06;62.46;103475.94;1050148;28;792;-62
2022/01/18 01:53:51;;;;;;;;;;;;;;;14.07;62.48;103486.63;1050003;28;690;-62
2022/01/18 01:54:42;;;;;;;;;;;;;;;14.05;62.08;103468.81;1049947;28;722;-62
2022/01/18 01:55:32;;;;;;;;;;;;;;;14.05;61.92;103472.38;1049335;28;859;-62
2022/01/18 01:56:23;;;;;;;;;;;;;;;14.04;62.37;103489.41;1049970;28;2005;-62
2022/01/18 01:57:13;;;;;;;;;;;;;;;14.04;62.60;103483.16;1049953;28;697;-62
2022/01/18 01:58:04;;;;;;;;;;;;;;;14.05;61.66;103482.25;1049885;28;699;-61
2022/01/18 01:58:54;;;;;;;;;;;;;;;14.05;62.27;103482.25;1050006;28;774;-62
2022/01/18 01:59:44;;;;;;;;;;;;;;;14.04;62.48;103489.41;1049869;28;711;-62
2022/01/18 02:00:35;;;;;;;;;;;;;;;14.05;61.77;103482.25;1049953;28;716;-62
2022/01/18 02:01:25;;;;;;;;;;;;;;;14.05;62.33;103483.13;1050027;28;696;-62
2022/01/18 02:02:16;;;;;;;;;;;;;;;14.04;62.38;103472.44;1049847;28;1209;-62
2022/01/18 02:03:06;;;;;;;;;;;;;;;14.02;62.57;103483.22;1050063;28;755;-62
2022/01/18 02:03:57;;;;;;;;;;;;;;;14.02;61.95;103483.22;1049943;28;935;-62
2022/01/18 02:04:48;;;;;;;;;;;;;;;14.02;61.85;103477.84;1051112;28;762;-62
2022/01/18 02:05:38;;;;;;;;;;;;;;;14.01;61.70;103481.47;1050052;28;849;-62
2022/01/18 02:06:28;;;;;;;;;;;;;;;14.02;62.07;103485.03;1049208;28;1971;-62
2022/01/18 02:07:19;;;;;;;;;;;;;;;14.01;62.52;103484.16;1046227;28;1956;-61
2022/01/18 02:08:09;;;;;;;;;;;;;;;14.02;62.29;103485.91;1050257;28;857;-62
2022/01/18 02:09:00;;;;;;;;;;;;;;;14.03;61.93;103473.38;1054634;28;822;-62
2022/01/18 02:09:50;;;;;;;;;;;;;;;14.02;62.54;103485.03;1054166;28;798;-62
2022/01/18 02:10:41;;;;;;;;;;;;;;;14.00;62.27;103476.16;1054122;28;775;-62
2022/01/18 02:11:31;;;;;;;;;;;;;;;13.99;62.25;103490.50;1054150;28;636;-61
2022/01/18 02:12:22;;;;;;;;;;;;;;;13.98;61.87;103497.66;1052884;28;886;-62
2022/01/18 02:13:12;;;;;;;;;;;;;;;13.99;61.72;103486.00;1054717;28;629;-62
2022/01/18 02:14:05;;;;;;;;;;;;;;;13.98;61.57;103486.94;1054069;28;832;-62
2022/01/18 02:14:59;;;;;;;;;;;;;;;13.97;62.26;103487.03;1054744;28;774;-62
2022/01/18 02:21:48;;;;;;;;;;;;;;;13.95;61.92;103489.75;1050386;28;716;-63
2022/01/18 02:22:38;;;;;;;;;;;;;;;13.95;62.30;103484.41;1050982;28;848;-63
2022/01/18 02:23:29;;;;;;;;;;;;;;;13.96;61.96;103488.84;1049835;28;704;-63
2022/01/18 02:24:19;;;;;;;;;;;;;;;13.95;61.88;103480.84;1046143;28;665;-63
2022/01/18 02:25:10;;;;;;;;;;;;;;;13.96;62.21;103483.47;1046160;28;1934;-62
2022/01/18 02:26:00;;;;;;;;;;;;;;;13.94;62.16;103485.31;1051130;28;724;-62
2022/01/18 02:26:50;;;;;;;;;;;;;;;13.94;62.19;103482.66;1049753;28;721;-62
2022/01/18 02:27:41;;;;;;;;;;;;;;;13.94;61.99;103484.44;1049845;28;666;-62
2022/01/18 02:28:31;;;;;;;;;;;;;;;13.93;62.60;103486.25;1049878;28;624;-62
2022/01/18 02:29:22;;;;;;;;;;;;;;;13.95;61.74;103481.72;1049849;28;800;-62
2022/01/18 02:30:12;;;;;;;;;;;;;;;13.96;61.71;103490.63;1049957;28;695;-61
2022/01/18 02:31:02;;;;;;;;;;;;;;;13.94;62.60;103488.00;1049867;28;796;-62
2022/01/18 02:31:53;;;;;;;;;;;;;;;13.94;61.94;103485.31;1049915;28;1031;-62
2022/01/18 02:32:43;;;;;;;;;;;;;;;13.96;62.09;103485.28;1049889;28;723;-62
2022/01/18 02:33:34;;;;;;;;;;;;;;;13.96;62.32;103486.16;1050653;28;2172;-61
2022/01/18 02:34:24;;;;;;;;;;;;;;;13.94;62.30;103482.66;1054165;28;689;-62
2022/01/18 02:35:14;;;;;;;;;;;;;;;13.94;61.77;103484.44;1053382;28;853;-61
2022/01/18 02:36:05;;;;;;;;;;;;;;;13.94;62.10;103487.13;1054101;28;796;-62
2022/01/18 02:36:57;;;;;;;;;;;;;;;13.93;62.34;103486.25;1054085;28;686;-61
2022/01/18 02:37:47;;;;;;;;;;;;;;;13.94;62.15;103487.13;1054774;28;711;-62
2022/01/18 02:38:38;;;;;;;;;;;;;;;13.93;62.43;103480.91;1053988;28;776;-62
2022/01/18 02:39:28;;;;;;;;;;;;;;;13.92;62.28;103484.50;1053966;28;988;-62
2022/01/18 02:40:18;;;;;;;;;;;;;;;13.91;61.67;103480.06;1052729;28;1846;-62
2022/01/18 02:41:09;;;;;;;;;;;;;;;13.92;62.23;103489.88;1049328;28;852;-62
2022/01/18 02:41:59;;;;;;;;;;;;;;;13.90;61.82;103489.94;1049415;28;755;-62
2022/01/18 02:42:57;;;;;;;;;;;;;;;13.90;62.29;103481.00;1049284;28;724;-62
2022/01/18 02:43:49;;;;;;;;;;;;;;;13.89;62.66;103481.94;1048733;28;869;-62
2022/01/18 02:44:39;;;;;;;;;;;;;;;13.90;62.46;103489.03;1048667;28;763;-63
2022/01/18 02:45:30;;;;;;;;;;;;;;;13.90;62.53;103481.00;1049254;28;854;-63
2022/01/18 02:46:20;;;;;;;;;;;;;;;13.88;62.49;103482.88;1052639;28;1877;-63
2022/01/18 02:47:11;;;;;;;;;;;;;;;13.90;62.01;103481.00;1054008;28;1003;-63
2022/01/18 02:48:01;;;;;;;;;;;;;;;13.89;62.59;103484.63;1054077;28;719;-63
2022/01/18 02:48:51;;;;;;;;;;;;;;;13.89;62.49;103484.63;1054080;28;701;-64
2022/01/18 02:49:42;;;;;;;;;;;;;;;13.89;62.21;103480.13;1053926;28;836;-64
2022/01/18 02:50:32;;;;;;;;;;;;;;;13.90;62.09;103486.38;1054086;28;688;-65
2022/01/18 02:51:23;;;;;;;;;;;;;;;13.88;62.21;103480.19;1053813;28;758;-65
2022/01/18 02:52:13;;;;;;;;;;;;;;;13.87;61.90;103476.63;1054023;28;712;-65
2022/01/18 02:53:04;;;;;;;;;;;;;;;13.88;62.28;103486.41;1053898;28;723;-65
2022/01/18 02:53:55;;;;;;;;;;;;;;;13.89;61.96;103480.13;1053971;28;834;-64
2022/01/18 02:54:46;;;;;;;;;;;;;;;13.90;61.61;103484.56;1054554;28;764;-64
2022/01/18 02:55:36;;;;;;;;;;;;;;;13.91;62.20;103480.06;1054039;28;800;-65
2022/01/18 02:56:27;;;;;;;;;;;;;;;13.89;61.99;103480.13;1053941;28;688;-64
2022/01/18 02:57:25;;;;;;;;;;;;;;;13.88;62.33;103481.06;1054071;28;750;-64
2022/01/18 02:58:23;;;;;;;;;;;;;;;13.87;62.38;103478.44;1045728;28;867;-65
2022/01/18 03:00:18;;;;;;;;;;;;;;;13.87;61.54;103478.44;1050426;28;912;-64
2022/01/18 03:03:15;;;;;;;;;;;;;;;13.87;61.63;103478.44;1050226;28;795;-64
2022/01/18 03:04:05;;;;;;;;;;;;;;;13.86;61.70;103480.25;1049821;28;823;-64
2022/01/18 03:04:56;;;;;;;;;;;;;;;13.86;61.64;103471.31;1049702;28;803;-64
2022/01/18 03:05:46;;;;;;;;;;;;;;;13.84;61.83;103475.84;1050458;28;806;-64
2022/01/18 03:06:36;;;;;;;;;;;;;;;13.83;61.57;103474.09;1049688;28;834;-64
2022/01/18 03:07:27;;;;;;;;;;;;;;;13.83;62.25;103474.09;1049923;28;656;-64
2022/01/18 03:08:17;;;;;;;;;;;;;;;13.83;61.53;103477.66;1049782;28;705;-64
2022/01/18 03:09:08;;;;;;;;;;;;;;;13.84;61.87;103476.72;1049908;28;747;-65
2022/01/18 03:09:58;;;;;;;;;;;;;;;13.83;61.46;103484.81;1050002;28;805;-64
2022/01/18 03:10:48;;;;;;;;;;;;;;;13.85;61.96;103477.59;1049598;28;916;-64
2022/01/18 03:11:39;;;;;;;;;;;;;;;13.83;61.83;103476.78;1049840;28;772;-64
2022/01/18 03:12:29;;;;;;;;;;;;;;;13.85;61.84;103477.59;1045720;28;968;-64
2022/01/18 03:13:20;;;;;;;;;;;;;;;13.84;62.04;103475.84;1045164;28;716;-64
2022/01/18 03:14:10;;;;;;;;;;;;;;;13.84;61.44;103478.53;1048999;28;677;-65
2022/01/18 03:15:01;;;;;;;;;;;;;;;13.83;62.07;103480.34;1049742;28;773;-65
2022/01/18 03:15:51;;;;;;;;;;;;;;;13.82;62.33;103483.06;1049867;28;709;-65
2022/01/18 03:16:42;;;;;;;;;;;;;;;13.80;62.49;103479.56;1050250;28;1836;-64
2022/01/18 03:17:32;;;;;;;;;;;;;;;13.81;62.11;103482.19;1054021;28;629;-64
2022/01/18 03:18:22;;;;;;;;;;;;;;;13.82;62.27;103483.06;1054148;28;609;-64
2022/01/18 03:19:13;;;;;;;;;;;;;;;13.83;62.10;103480.34;1054044;28;876;-64
2022/01/18 03:20:05;;;;;;;;;;;;;;;13.83;61.83;103479.47;1054692;28;754;-64
2022/01/18 03:20:56;;;;;;;;;;;;;;;13.81;61.43;103481.31;1054538;28;828;-64
2022/01/18 03:21:46;;;;;;;;;;;;;;;13.83;62.20;103484.81;1054510;28;741;-64
2022/01/18 03:22:37;;;;;;;;;;;;;;;13.81;62.20;103486.69;1054606;28;767;-64
2022/01/18 03:23:27;;;;;;;;;;;;;;;13.82;61.88;103477.72;1053949;28;618;-64
2022/01/18 03:25:12;;;;;;;;;;;;;;;13.81;61.42;103486.69;1054090;28;692;-64
2022/01/18 03:26:31;;;;;;;;;;;;;;;13.80;62.26;103495.66;1054548;28;1947;-63
2022/01/18 03:28:30;;;;;;;;;;;;;;;13.79;61.34;103496.63;1053386;28;692;-63
2022/01/18 03:29:21;;;;;;;;;;;;;;;13.79;62.13;103493.94;1053896;28;708;-63
2022/01/18 03:30:12;;;;;;;;;;;;;;;13.79;61.11;103494.78;1054019;28;653;-63
2022/01/18 03:31:02;;;;;;;;;;;;;;;13.79;61.32;103488.56;1054476;28;617;-63
2022/01/18 03:31:52;;;;;;;;;;;;;;;13.78;62.08;103493.06;1053887;28;925;-63
2022/01/18 03:32:43;;;;;;;;;;;;;;;13.78;61.11;103495.75;1054039;28;805;-62
2022/01/18 03:33:34;;;;;;;;;;;;;;;13.78;62.01;103493.06;1053908;28;948;-63
2022/01/18 03:34:25;;;;;;;;;;;;;;;13.78;61.92;103494.88;1054530;28;613;-62
2022/01/18 03:35:15;;;;;;;;;;;;;;;13.77;62.18;103490.44;1054016;28;943;-62
2022/01/18 03:36:06;;;;;;;;;;;;;;;13.79;60.95;103484.06;1051920;28;1772;-62
2022/01/18 03:36:56;;;;;;;;;;;;;;;13.79;61.86;103488.56;1049845;28;751;-61
2022/01/18 03:37:46;;;;;;;;;;;;;;;13.79;61.86;103492.09;1049207;28;869;-61
2022/01/18 03:38:37;;;;;;;;;;;;;;;13.77;62.03;103488.63;1049164;28;641;-62
2022/01/18 03:39:27;;;;;;;;;;;;;;;13.75;62.02;103486.94;1049116;28;641;-62
2022/01/18 03:40:18;;;;;;;;;;;;;;;13.77;61.06;103496.66;1049811;28;722;-62
2022/01/18 03:41:08;;;;;;;;;;;;;;;13.77;61.36;103491.31;1051025;28;665;-62
2022/01/18 03:42:30;;;;;;;;;;;;;;;13.77;61.25;103491.31;1049780;28;903;-62
2022/01/18 03:43:12;;;;;;;;;;;;;;;13.78;61.14;103497.53;1046956;28;739;-63
2022/01/18 03:44:02;;;;;;;;;;;;;;;13.78;60.95;103495.75;1049527;28;805;-63
2022/01/18 03:44:56;;;;;;;;;;;;;;;13.79;61.11;103496.63;1049256;28;709;-63
2022/01/18 03:45:46;;;;;;;;;;;;;;;13.78;61.65;103505.59;1050886;28;739;-63
2022/01/18 03:46:37;;;;;;;;;;;;;;;13.77;61.22;103496.66;1050693;28;2053;-63
2022/01/18 03:47:28;;;;;;;;;;;;;;;13.75;62.16;103495.84;1054493;28;716;-63
2022/01/18 03:48:36;;;;;;;;;;;;;;;13.76;61.92;103499.41;1053956;28;852;-63
2022/01/18 03:49:27;;;;;;;;;;;;;;;13.75;61.65;103493.16;1054437;28;731;-63
2022/01/18 03:50:18;;;;;;;;;;;;;;;13.75;61.68;103500.34;1053920;28;843;-63
2022/01/18 03:51:08;;;;;;;;;;;;;;;13.74;61.23;103499.47;1048880;28;804;-63
2022/01/18 03:51:59;;;;;;;;;;;;;;;13.73;62.04;103499.50;1050212;28;708;-63
2022/01/18 03:52:49;;;;;;;;;;;;;;;13.73;61.63;103494.16;1054723;28;716;-64
2022/01/18 03:53:40;;;;;;;;;;;;;;;13.73;61.68;103502.19;1054601;28;716;-64
2022/01/18 03:54:30;;;;;;;;;;;;;;;13.74;61.89;103501.25;1054708;28;838;-64
2022/01/18 03:55:20;;;;;;;;;;;;;;;13.73;61.90;103500.38;1054005;28;1932;-65
2022/01/18 03:56:11;;;;;;;;;;;;;;;13.72;62.03;103495.94;1050011;28;649;-65
2022/01/18 03:57:01;;;;;;;;;;;;;;;13.72;61.64;103503.13;1049980;28;724;-65
2022/01/18 03:57:52;;;;;;;;;;;;;;;13.71;61.35;103501.38;1050415;28;720;-65
2022/01/18 03:58:42;;;;;;;;;;;;;;;13.71;62.19;103506.72;1050459;28;897;-65
2022/01/18 03:59:33;;;;;;;;;;;;;;;13.71;61.62;103512.97;1050602;28;634;-65
2022/01/18 04:00:23;;;;;;;;;;;;;;;13.72;61.53;103513.84;1050417;28;938;-65
2022/01/18 04:01:14;;;;;;;;;;;;;;;13.73;61.40;103511.09;1050531;28;646;-65
2022/01/18 04:02:04;;;;;;;;;;;;;;;13.74;61.87;103515.53;1050362;28;895;-65
2022/01/18 04:02:54;;;;;;;;;;;;;;;13.75;61.74;103516.41;1050227;28;883;-65
2022/01/18 04:03:45;;;;;;;;;;;;;;;13.74;61.82;103512.84;1050520;28;735;-65
2022/01/18 04:04:35;;;;;;;;;;;;;;;13.75;61.67;103514.59;1050435;28;938;-65
2022/01/18 04:05:26;;;;;;;;;;;;;;;13.74;61.33;103517.34;1050455;28;641;-65
2022/01/18 04:06:16;;;;;;;;;;;;;;;13.72;61.69;103520.06;1050375;28;1979;-65
2022/01/18 04:07:06;;;;;;;;;;;;;;;13.71;61.20;103528.16;1050352;28;915;-65
2022/01/18 04:07:57;;;;;;;;;;;;;;;13.73;61.54;103527.19;1050448;28;731;-65
2022/01/18 04:08:47;;;;;;;;;;;;;;;13.72;61.95;103525.44;1050385;28;791;-65
2022/01/18 04:09:38;;;;;;;;;;;;;;;13.73;61.24;103527.19;1050470;28;765;-64
2022/01/18 04:10:28;;;;;;;;;;;;;;;13.72;61.40;103520.06;1050568;28;782;-64
2022/01/18 04:11:19;;;;;;;;;;;;;;;13.72;61.97;103517.38;1050499;28;768;-64
2022/01/18 04:12:09;;;;;;;;;;;;;;;13.72;61.67;103514.72;1050517;28;669;-64
2022/01/18 04:12:59;;;;;;;;;;;;;;;13.71;61.24;103517.44;1050370;28;751;-64
2022/01/18 04:13:50;;;;;;;;;;;;;;;13.71;61.20;103517.44;1050465;28;784;-65
2022/01/18 04:14:40;;;;;;;;;;;;;;;13.71;61.12;103507.59;1050455;28;831;-65
2022/01/18 04:15:31;;;;;;;;;;;;;;;13.73;61.37;103504.88;1050396;28;921;-65
2022/01/18 04:16:22;;;;;;;;;;;;;;;13.73;61.46;103519.13;1051627;28;751;-65
2022/01/18 04:17:30;;;;;;;;;;;;;;;13.73;61.10;103519.13;1050221;28;1085;-65
2022/01/18 04:27:17;;;;;;;;;;;;;;;13.70;61.20;103523.72;1045898;28;867;-66
2022/01/18 04:28:18;;;;;;;;;;;;;;;13.70;61.50;103526.41;1050936;28;988;-66
2022/01/18 04:29:09;;;;;;;;;;;;;;;13.69;61.78;103525.53;1051000;28;828;-65
2022/01/18 04:30:00;;;;;;;;;;;;;;;13.70;61.79;103529.97;1050898;28;959;-64
2022/01/18 04:30:50;;;;;;;;;;;;;;;13.71;61.75;103522.81;1049819;28;739;-64
2022/01/18 04:31:41;;;;;;;;;;;;;;;13.70;61.87;103524.59;1049806;28;775;-64
2022/01/18 04:32:31;;;;;;;;;;;;;;;13.68;61.26;103523.78;1049866;28;657;-64
2022/01/18 04:33:21;;;;;;;;;;;;;;;13.68;61.34;103534.50;1049792;28;822;-64
2022/01/18 04:34:12;;;;;;;;;;;;;;;13.67;62.08;103527.38;1051747;28;1940;-63
2022/01/18 04:35:02;;;;;;;;;;;;;;;13.68;61.78;103523.78;1053869;28;704;-63
2022/01/18 04:35:53;;;;;;;;;;;;;;;13.68;61.70;103525.59;1053955;28;781;-63
2022/01/18 04:36:45;;;;;;;;;;;;;;;13.67;62.07;103530.06;1053926;28;708;-63
2022/01/18 04:37:35;;;;;;;;;;;;;;;13.67;61.86;103531.88;1054440;28;758;-63
2022/01/18 04:38:26;;;;;;;;;;;;;;;13.67;61.15;103526.50;1054289;28;705;-63
2022/01/18 04:39:16;;;;;;;;;;;;;;;13.67;61.39;103526.50;1054572;28;703;-63
2022/01/18 04:40:12;;;;;;;;;;;;;;;13.70;61.41;103534.44;1053887;28;773;-63
2022/01/18 04:41:07;;;;;;;;;;;;;;;13.69;61.18;103524.66;1054617;28;703;-64
2022/01/18 04:42:00;;;;;;;;;;;;;;;13.69;61.06;103530.91;1054480;28;743;-63
2022/01/18 04:48:31;;;;;;;;;;;;;;;13.69;61.32;103519.28;1053847;28;621;-63
2022/01/18 04:49:22;;;;;;;;;;;;;;;13.66;62.09;103514.91;1050978;28;1867;-63
2022/01/18 04:50:12;;;;;;;;;;;;;;;13.67;61.19;103523.84;1052996;28;1386;-63
2022/01/18 04:51:03;;;;;;;;;;;;;;;13.69;61.66;103521.97;1056864;28;1947;-63
2022/01/18 04:51:53;;;;;;;;;;;;;;;13.68;61.11;103514.88;1058241;28;678;-63
2022/01/18 04:52:43;;;;;;;;;;;;;;;13.67;61.49;103515.78;1057964;28;850;-63
2022/01/18 04:53:34;;;;;;;;;;;;;;;13.66;61.10;103514.91;1057547;28;679;-63
2022/01/18 04:54:29;;;;;;;;;;;;;;;13.68;61.49;103514.88;1057387;28;665;-63
2022/01/18 04:55:20;;;;;;;;;;;;;;;13.67;61.59;103508.63;1058117;28;620;-63
2022/01/18 04:56:15;;;;;;;;;;;;;;;13.67;61.75;103515.78;1058078;28;753;-63
2022/01/18 04:57:56;;;;;;;;;;;;;;;13.64;61.87;103516.78;1058706;28;737;-63
2022/01/18 04:58:46;;;;;;;;;;;;;;;13.65;62.03;103517.66;1057408;28;684;-63
2022/01/18 04:59:37;;;;;;;;;;;;;;;13.65;61.29;103517.66;1057565;28;696;-63
2022/01/18 05:00:27;;;;;;;;;;;;;;;13.66;61.39;103517.59;1057462;28;731;-63
2022/01/18 05:01:18;;;;;;;;;;;;;;;13.65;62.05;103518.53;1057456;28;832;-63
2022/01/18 05:02:08;;;;;;;;;;;;;;;13.64;61.07;103514.09;1057524;28;909;-63
2022/01/18 05:02:59;;;;;;;;;;;;;;;13.65;61.95;103514.97;1057991;28;826;-63
2022/01/18 05:03:49;;;;;;;;;;;;;;;13.66;61.14;103525.63;1057431;28;741;-63
2022/01/18 05:04:42;;;;;;;;;;;;;;;13.66;61.83;103520.28;1056636;28;771;-63
2022/01/18 05:05:36;;;;;;;;;;;;;;;13.66;60.94;103514.03;1058105;28;844;-63
2022/01/18 05:06:27;;;;;;;;;;;;;;;13.67;61.34;103515.78;1057076;28;1947;-63
2022/01/18 05:07:18;;;;;;;;;;;;;;;13.68;61.72;103512.19;1058080;28;851;-63
2022/01/18 05:08:13;;;;;;;;;;;;;;;13.67;61.96;103510.44;1058087;28;625;-63
2022/01/18 05:09:09;;;;;;;;;;;;;;;13.69;61.11;103508.56;1057943;28;679;-63
2022/01/18 05:09:59;;;;;;;;;;;;;;;13.69;61.55;103514.81;1058159;28;790;-63
2022/01/18 05:10:53;;;;;;;;;;;;;;;13.72;61.65;103514.72;1057985;28;749;-63
2022/01/18 05:11:52;;;;;;;;;;;;;;;13.76;60.68;103515.47;1057929;28;872;-63
2022/01/18 05:12:48;;;;;;;;;;;;;;;13.76;60.37;103516.34;1058134;28;805;-64
2022/01/18 05:14:36;;;;;;;;;;;;;;;13.85;60.78;103517.81;1054343;28;645;-63
2022/01/18 05:20:36;;;;;;;;;;;;;;;14.04;59.59;103526.06;1054263;28;745;-63
2022/01/18 05:21:25;;;;;;;;;;;;;;;14.07;60.07;103521.47;1053917;28;672;-63
2022/01/18 05:23:24;;;;;;;;;;;;;;;14.17;59.52;103520.19;1054365;28;708;-63
2022/01/18 05:24:15;;;;;;;;;;;;;;;14.18;59.34;103521.94;1054872;28;837;-63
2022/01/18 05:25:05;;;;;;;;;;;;;;;14.23;59.25;103524.44;1054954;28;744;-63
2022/01/18 05:25:55;;;;;;;;;;;;;;;14.24;59.68;103524.41;1056609;27;1798;-63
2022/01/18 05:26:46;;;;;;;;;;;;;;;14.27;59.19;103518.06;1054767;28;1973;-63
2022/01/18 05:27:36;;;;;;;;;;;;;;;14.27;59.06;103519.84;1055669;27;701;-63
2022/01/18 05:28:27;;;;;;;;;;;;;;;14.29;59.95;103515.31;1055376;27;745;-63
2022/01/18 05:29:17;;;;;;;;;;;;;;;14.31;59.45;103518.81;1055493;27;649;-64
2022/01/18 05:30:08;;;;;;;;;;;;;;;14.33;59.32;103516.94;1055542;28;755;-63
2022/01/18 05:30:58;;;;;;;;;;;;;;;14.35;59.74;103515.94;1054956;28;760;-65
2022/01/18 05:31:48;;;;;;;;;;;;;;;14.36;59.19;103516.81;1054852;28;1101;-63
2022/01/18 05:32:39;;;;;;;;;;;;;;;14.35;59.40;103515.06;1050363;28;872;-63
2022/01/18 05:33:29;;;;;;;;;;;;;;;14.37;59.81;103516.75;1050363;28;2093;-62
2022/01/18 05:34:19;;;;;;;;;;;;;;;14.38;59.43;103521.19;1053544;28;770;-62
2022/01/18 05:35:10;;;;;;;;;;;;;;;14.40;59.42;103513.09;1053325;28;740;-62